Time;durP1;ratioP1;P1;durP2;ratioP2;P2;SDS_P1;SDS_P2;PMS_P1;PMS_P2;Temp;Humidity;BMP_temperature;BMP_pressure;BME280_temperature;BME280_humidity;BME280_pressure;Samples;Min_cycle;Max_cycle;Signal;HPM_P1;HPM_P2
2021/12/31 00:00:26;;;;;;;16.70;2.25;;;;;;;;;;5051698;28;20037;-63
2021/12/31 00:02:52;;;;;;;11.18;2.20;;;;;;;;;;5051507;28;20040;-63
2021/12/31 00:05:18;;;;;;;8.75;2.17;;;;;;;;;;5051086;28;20045;-63
2021/12/31 00:07:45;;;;;;;7.45;2.25;;;;;;;;;;5051625;28;20120;-63
2021/12/31 00:10:11;;;;;;;13.13;2.63;;;;;;;;;;5051483;28;20053;-63
2021/12/31 00:12:40;;;;;;;10.68;2.50;;;;;;;;;;5050669;28;20116;-62
2021/12/31 00:15:06;;;;;;;14.95;2.97;;;;;;;;;;5051351;28;20385;-62
2021/12/31 00:17:32;;;;;;;12.98;2.90;;;;;;;;;;5050939;28;20044;-63
2021/12/31 00:20:02;;;;;;;10.75;2.28;;;;;;;;;;5050630;28;20037;-63
2021/12/31 00:25:13;;;;;;;11.80;2.58;;;;;;;;;;5050654;28;20088;-63
2021/12/31 00:27:39;;;;;;;11.05;2.10;;;;;;;;;;5071299;28;20052;-63
2021/12/31 00:30:06;;;;;;;12.63;2.95;;;;;;;;;;5070865;28;20044;-63
2021/12/31 00:32:32;;;;;;;10.82;2.00;;;;;;;;;;5070367;28;20032;-63
2021/12/31 00:34:58;;;;;;;10.63;2.38;;;;;;;;;;5071035;28;20032;-63
2021/12/31 00:37:27;;;;;;;14.23;2.40;;;;;;;;;;5071146;28;20129;-63
2021/12/31 00:39:53;;;;;;;12.90;2.55;;;;;;;;;;5071147;28;20048;-63
2021/12/31 00:42:19;;;;;;;10.85;2.95;;;;;;;;;;5070281;28;20050;-63
2021/12/31 00:44:45;;;;;;;12.88;2.55;;;;;;;;;;5070662;28;20040;-63
2021/12/31 00:47:11;;;;;;;10.95;2.60;;;;;;;;;;5069182;28;20041;-63
2021/12/31 00:49:37;;;;;;;20.65;3.10;;;;;;;;;;5070036;28;20372;-63
2021/12/31 00:52:03;;;;;;;10.18;2.50;;;;;;;;;;5070826;28;20040;-63
2021/12/31 00:54:29;;;;;;;10.13;2.60;;;;;;;;;;5069130;28;20040;-63
2021/12/31 00:57:02;;;;;;;12.80;2.80;;;;;;;;;;5070091;28;20048;-62
2021/12/31 00:59:28;;;;;;;10.85;2.78;;;;;;;;;;5070709;28;20372;-62
2021/12/31 01:01:54;;;;;;;13.35;3.10;;;;;;;;;;5071118;28;20497;-63
2021/12/31 01:04:21;;;;;;;16.38;2.92;;;;;;;;;;5069770;28;20049;-63
2021/12/31 01:06:48;;;;;;;12.05;2.83;;;;;;;;;;5070272;28;20064;-63
2021/12/31 01:09:14;;;;;;;13.15;3.20;;;;;;;;;;5070550;28;20090;-63
2021/12/31 01:11:42;;;;;;;12.13;2.70;;;;;;;;;;5069816;28;20123;-63
2021/12/31 01:14:19;;;;;;;14.63;3.10;;;;;;;;;;5070305;28;20123;-63
2021/12/31 01:16:50;;;;;;;17.02;3.40;;;;;;;;;;5070416;28;20071;-63
2021/12/31 01:21:42;;;;;;;16.10;3.45;;;;;;;;;;5070473;28;20044;-63
2021/12/31 01:24:11;;;;;;;14.43;2.40;;;;;;;;;;5069701;28;20056;-63
2021/12/31 01:26:37;;;;;;;13.10;3.00;;;;;;;;;;5057685;28;20048;-63
2021/12/31 01:29:03;;;;;;;13.68;3.22;;;;;;;;;;5050018;28;20094;-63
2021/12/31 01:31:29;;;;;;;15.95;3.33;;;;;;;;;;5050067;28;20047;-63
2021/12/31 01:33:55;;;;;;;10.90;2.80;;;;;;;;;;5049320;28;20391;-63
2021/12/31 01:36:21;;;;;;;11.07;3.20;;;;;;;;;;5050474;28;20041;-63
2021/12/31 01:38:47;;;;;;;16.35;3.03;;;;;;;;;;5050470;28;20045;-63
2021/12/31 01:41:13;;;;;;;16.40;3.13;;;;;;;;;;5049555;28;20068;-63
2021/12/31 01:43:39;;;;;;;15.85;3.08;;;;;;;;;;5049899;28;20041;-63
2021/12/31 01:46:11;;;;;;;12.57;2.45;;;;;;;;;;5050020;28;20040;-63
2021/12/31 01:48:59;;;;;;;17.30;3.63;;;;;;;;;;5049324;28;20392;-63
2021/12/31 01:51:24;;;;;;;14.68;2.95;;;;;;;;;;5049952;28;20049;-63
2021/12/31 01:53:50;;;;;;;9.18;3.25;;;;;;;;;;5049975;28;20125;-63
2021/12/31 01:56:18;;;;;;;12.25;3.00;;;;;;;;;;5049158;28;20123;-63
2021/12/31 01:58:45;;;;;;;9.55;2.55;;;;;;;;;;5049960;28;20049;-63
2021/12/31 02:01:11;;;;;;;11.18;2.70;;;;;;;;;;5049896;28;20044;-63
2021/12/31 02:03:38;;;;;;;8.18;1.92;;;;;;;;;;5048664;28;20047;-63
2021/12/31 02:06:04;;;;;;;7.80;2.40;;;;;;;;;;5049940;28;20555;-63
2021/12/31 02:08:30;;;;;;;9.30;2.33;;;;;;;;;;5049773;28;20391;-63
2021/12/31 02:10:57;;;;;;;10.95;3.38;;;;;;;;;;5049094;28;20423;-63
2021/12/31 02:13:23;;;;;;;9.57;2.55;;;;;;;;;;5049735;28;20076;-63
2021/12/31 02:15:49;;;;;;;9.48;2.35;;;;;;;;;;5049338;28;20041;-63
2021/12/31 02:18:15;;;;;;;19.05;3.33;;;;;;;;;;5051423;28;20037;-63
2021/12/31 02:20:45;;;;;;;10.75;3.22;;;;;;;;;;5053205;28;20074;-63
2021/12/31 02:23:17;;;;;;;8.82;2.20;;;;;;;;;;5052759;28;20118;-63
2021/12/31 02:25:43;;;;;;;8.70;2.63;;;;;;;;;;5056946;28;20091;-63
2021/12/31 02:28:09;;;;;;;9.90;2.50;;;;;;;;;;5072959;28;20483;-63
2021/12/31 02:30:35;;;;;;;10.98;2.70;;;;;;;;;;5073281;28;20116;-63
2021/12/31 02:33:03;;;;;;;9.80;3.00;;;;;;;;;;5072597;28;20119;-63
2021/12/31 02:35:29;;;;;;;8.77;3.13;;;;;;;;;;5073110;28;20044;-63
2021/12/31 02:37:56;;;;;;;10.52;3.35;;;;;;;;;;5073368;28;20075;-63
2021/12/31 02:40:23;;;;;;;9.65;3.35;;;;;;;;;;5072579;28;20044;-63
2021/12/31 02:42:50;;;;;;;7.25;2.90;;;;;;;;;;5073065;28;20399;-63
2021/12/31 02:45:16;;;;;;;7.38;3.00;;;;;;;;;;5073192;28;20051;-63
2021/12/31 02:47:45;;;;;;;10.40;3.45;;;;;;;;;;5072481;28;20040;-63
2021/12/31 02:50:13;;;;;;;10.98;3.40;;;;;;;;;;5072978;28;20057;-62
2021/12/31 02:52:39;;;;;;;9.32;3.75;;;;;;;;;;5072687;28;20509;-63
2021/12/31 02:55:06;;;;;;;9.88;3.90;;;;;;;;;;5072302;28;20043;-63
2021/12/31 02:57:32;;;;;;;12.70;3.45;;;;;;;;;;5073174;28;20111;-63
2021/12/31 02:59:58;;;;;;;8.70;4.03;;;;;;;;;;5072908;28;20478;-63
2021/12/31 03:02:25;;;;;;;15.10;5.18;;;;;;;;;;5072261;28;20090;-63
2021/12/31 03:04:54;;;;;;;7.63;3.75;;;;;;;;;;5072757;28;20097;-63
2021/12/31 03:07:21;;;;;;;11.13;3.75;;;;;;;;;;5072783;28;20123;-63
2021/12/31 03:09:49;;;;;;;12.45;4.07;;;;;;;;;;5071977;28;20048;-63
2021/12/31 03:12:15;;;;;;;10.23;4.60;;;;;;;;;;5072582;28;20102;-63
2021/12/31 03:14:45;;;;;;;9.57;4.93;;;;;;;;;;5072568;28;20615;-63
2021/12/31 03:17:11;;;;;;;12.05;4.60;;;;;;;;;;5071977;28;20123;-63
2021/12/31 03:19:38;;;;;;;9.60;4.82;;;;;;;;;;5072504;28;20040;-63
2021/12/31 03:22:04;;;;;;;11.70;4.63;;;;;;;;;;5072475;28;20041;-63
2021/12/31 03:24:30;;;;;;;13.25;4.85;;;;;;;;;;5071243;28;20048;-63
2021/12/31 03:26:56;;;;;;;14.57;4.97;;;;;;;;;;5057915;28;20218;-63
2021/12/31 03:29:22;;;;;;;12.27;4.93;;;;;;;;;;5052141;28;20041;-63
2021/12/31 03:31:48;;;;;;;9.85;4.68;;;;;;;;;;5050163;28;20077;-63
2021/12/31 03:34:14;;;;;;;13.07;4.97;;;;;;;;;;5052027;28;20068;-63
2021/12/31 03:36:41;;;;;;;10.10;5.00;;;;;;;;;;5052238;28;20037;-63
2021/12/31 03:39:08;;;;;;;9.60;4.32;;;;;;;;;;5051415;28;20041;-63
2021/12/31 03:41:34;;;;;;;11.85;4.88;;;;;;;;;;5052122;28;20041;-63
2021/12/31 03:44:00;;;;;;;8.27;4.22;;;;;;;;;;5051928;28;20407;-63
2021/12/31 03:46:26;;;;;;;8.55;4.28;;;;;;;;;;5051427;28;20044;-63
2021/12/31 03:48:52;;;;;;;9.68;3.75;;;;;;;;;;5052074;28;20037;-63
2021/12/31 03:51:18;;;;;;;9.45;3.80;;;;;;;;;;5052252;28;20061;-63
2021/12/31 03:53:44;;;;;;;7.40;3.80;;;;;;;;;;5051197;28;20499;-63
2021/12/31 03:56:10;;;;;;;8.13;3.67;;;;;;;;;;5051760;28;20064;-63
2021/12/31 03:58:36;;;;;;;9.23;3.92;;;;;;;;;;5051369;28;20135;-63
2021/12/31 04:01:02;;;;;;;6.18;3.80;;;;;;;;;;5051131;28;20124;-63
2021/12/31 04:03:28;;;;;;;8.93;4.35;;;;;;;;;;5051485;28;20044;-63
2021/12/31 04:05:54;;;;;;;10.85;4.13;;;;;;;;;;5051673;28;20045;-63
2021/12/31 04:08:20;;;;;;;9.13;4.50;;;;;;;;;;5051070;28;20043;-63
2021/12/31 04:10:46;;;;;;;6.78;4.28;;;;;;;;;;5051503;28;20056;-63
2021/12/31 04:13:12;;;;;;;8.32;4.53;;;;;;;;;;5051338;28;20507;-63
2021/12/31 04:15:38;;;;;;;8.40;5.03;;;;;;;;;;5050703;28;20408;-63
2021/12/31 04:18:04;;;;;;;10.30;4.93;;;;;;;;;;5051370;28;20547;-63
2021/12/31 04:23:01;;;;;;;9.35;4.93;;;;;;;;;;5050006;28;20053;-63
2021/12/31 04:25:27;;;;;;;7.53;5.22;;;;;;;;;;5053187;28;20330;-63
2021/12/31 04:27:53;;;;;;;9.48;5.35;;;;;;;;;;5071180;28;20127;-63
2021/12/31 04:30:19;;;;;;;9.02;5.30;;;;;;;;;;5070231;28;20197;-63
2021/12/31 04:32:45;;;;;;;6.90;5.20;;;;;;;;;;5070920;28;20040;-63
2021/12/31 04:35:12;;;;;;;6.40;4.72;;;;;;;;;;5070857;28;20047;-63
2021/12/31 04:37:42;;;;;;;13.50;6.03;;;;;;;;;;5070090;28;20032;-63
2021/12/31 04:40:08;;;;;;;15.20;5.35;;;;;;;;;;5069983;28;20041;-63
2021/12/31 04:42:34;;;;;;;11.27;4.15;;;;;;;;;;5070802;28;20119;-63
2021/12/31 04:45:00;;;;;;;9.82;5.22;;;;;;;;;;5070002;28;20170;-63
2021/12/31 04:47:26;;;;;;;12.98;4.70;;;;;;;;;;5070727;28;20054;-63
2021/12/31 04:49:52;;;;;;;8.00;4.60;;;;;;;;;;5071038;28;20044;-63
2021/12/31 04:52:18;;;;;;;9.20;4.95;;;;;;;;;;5069895;28;20445;-63
2021/12/31 04:54:44;;;;;;;10.55;4.75;;;;;;;;;;5070671;28;20059;-63
2021/12/31 04:57:10;;;;;;;7.80;4.57;;;;;;;;;;5070561;28;20037;-63
2021/12/31 04:59:36;;;;;;;8.32;4.15;;;;;;;;;;5069731;28;20263;-63
2021/12/31 05:02:02;;;;;;;9.95;4.30;;;;;;;;;;5070657;28;20052;-63
2021/12/31 05:04:28;;;;;;;8.75;3.75;;;;;;;;;;5070429;28;20064;-63
2021/12/31 05:06:54;;;;;;;11.00;4.03;;;;;;;;;;5070008;28;20083;-63
2021/12/31 05:09:20;;;;;;;7.25;3.67;;;;;;;;;;5070433;28;20119;-63
2021/12/31 05:11:46;;;;;;;8.38;3.58;;;;;;;;;;5070510;28;20440;-63
2021/12/31 05:14:12;;;;;;;7.32;3.60;;;;;;;;;;5069501;28;20127;-63
2021/12/31 05:16:38;;;;;;;9.45;3.70;;;;;;;;;;5070106;28;20032;-63
2021/12/31 05:19:04;;;;;;;7.57;3.30;;;;;;;;;;5070186;28;20040;-63
2021/12/31 05:21:31;;;;;;;5.85;2.88;;;;;;;;;;5069378;28;20136;-63
2021/12/31 05:23:57;;;;;;;8.68;2.60;;;;;;;;;;5069827;28;20143;-63
2021/12/31 05:26:24;;;;;;;5.78;2.70;;;;;;;;;;5060223;28;20052;-63
2021/12/31 05:28:50;;;;;;;8.45;3.03;;;;;;;;;;5049428;28;20047;-63
2021/12/31 05:31:16;;;;;;;7.10;3.00;;;;;;;;;;5050269;28;20076;-63
2021/12/31 05:33:42;;;;;;;7.25;2.65;;;;;;;;;;5050234;28;20047;-63
2021/12/31 05:36:08;;;;;;;6.97;2.78;;;;;;;;;;5049464;28;20073;-63
2021/12/31 05:38:34;;;;;;;4.35;2.28;;;;;;;;;;5050196;28;20116;-63
2021/12/31 05:41:01;;;;;;;6.43;2.72;;;;;;;;;;5050068;28;20152;-63
2021/12/31 05:43:27;;;;;;;7.43;2.63;;;;;;;;;;5049266;28;20045;-63
2021/12/31 05:45:53;;;;;;;10.25;2.58;;;;;;;;;;5049811;28;20457;-63
2021/12/31 05:48:19;;;;;;;6.18;2.60;;;;;;;;;;5050097;28;20040;-63
2021/12/31 05:50:45;;;;;;;4.20;2.28;;;;;;;;;;5049684;28;20033;-63
2021/12/31 05:53:11;;;;;;;7.32;2.08;;;;;;;;;;5053444;28;20494;-63
2021/12/31 05:55:37;;;;;;;8.70;2.30;;;;;;;;;;5053994;28;20037;-63
2021/12/31 05:58:03;;;;;;;8.73;2.30;;;;;;;;;;5053995;28;20043;-63
2021/12/31 06:00:29;;;;;;;5.80;2.03;;;;;;;;;;5053163;28;20049;-63
2021/12/31 06:02:56;;;;;;;6.97;2.35;;;;;;;;;;5053862;28;20048;-63
2021/12/31 06:05:25;;;;;;;5.43;1.98;;;;;;;;;;5054030;28;20045;-63
2021/12/31 06:07:51;;;;;;;4.18;1.92;;;;;;;;;;5053046;28;20102;-63
2021/12/31 06:10:17;;;;;;;4.50;2.15;;;;;;;;;;5053479;28;20045;-63
2021/12/31 06:12:43;;;;;;;4.88;2.00;;;;;;;;;;5053587;28;20132;-63
2021/12/31 06:15:10;;;;;;;5.10;2.20;;;;;;;;;;5053087;28;20132;-63
2021/12/31 06:17:37;;;;;;;5.97;1.85;;;;;;;;;;5053400;28;20037;-63
2021/12/31 06:20:05;;;;;;;6.40;2.58;;;;;;;;;;5053852;28;20094;-63
2021/12/31 06:22:31;;;;;;;5.07;2.20;;;;;;;;;;5052744;28;20487;-63
2021/12/31 06:24:57;;;;;;;6.65;2.15;;;;;;;;;;5053103;28;20422;-63
2021/12/31 06:27:24;;;;;;;4.05;1.88;;;;;;;;;;5071174;28;20051;-63
2021/12/31 06:29:50;;;;;;;5.07;2.00;;;;;;;;;;5072356;28;20074;-63
2021/12/31 06:32:16;;;;;;;4.07;2.08;;;;;;;;;;5073269;28;20420;-63
2021/12/31 06:34:42;;;;;;;3.40;1.80;;;;;;;;;;5072821;28;20127;-63
2021/12/31 06:37:08;;;;;;;4.03;1.90;;;;;;;;;;5072521;28;20120;-63
2021/12/31 06:39:35;;;;;;;5.30;1.85;;;;;;;;;;5073215;28;20056;-63
2021/12/31 06:42:03;;;;;;;3.15;1.67;;;;;;;;;;5072915;28;20449;-63
2021/12/31 06:44:30;;;;;;;5.97;1.88;;;;;;;;;;5072190;28;20403;-63
2021/12/31 06:46:56;;;;;;;8.32;2.38;;;;;;;;;;5072789;28;20044;-63
2021/12/31 06:49:22;;;;;;;2.95;1.67;;;;;;;;;;5072898;28;20043;-63
2021/12/31 06:51:48;;;;;;;3.42;1.75;;;;;;;;;;5072337;28;20245;-63
2021/12/31 06:54:14;;;;;;;4.93;1.95;;;;;;;;;;5105286;28;20128;-63
2021/12/31 06:56:40;;;;;;;5.05;2.10;;;;;;;;;;5072817;28;20036;-63
2021/12/31 06:59:06;;;;;;;5.18;2.33;;;;;;;;;;5072222;28;20039;-63
2021/12/31 07:01:32;;;;;;;5.45;2.10;;;;;;;;;;5072912;28;20048;-63
2021/12/31 07:03:58;;;;;;;6.00;1.95;;;;;;;;;;5071909;28;20047;-63
2021/12/31 07:06:24;;;;;;;5.22;2.10;;;;;;;;;;5072218;28;20044;-63
2021/12/31 07:08:50;;;;;;;5.45;2.20;;;;;;;;;;5072179;28;20040;-63
2021/12/31 07:11:17;;;;;;;7.03;2.40;;;;;;;;;;5072379;28;20040;-63
2021/12/31 07:13:43;;;;;;;4.45;1.83;;;;;;;;;;5072103;28;20059;-63
2021/12/31 07:16:09;;;;;;;6.05;2.50;;;;;;;;;;5072377;28;20441;-63
2021/12/31 07:18:35;;;;;;;4.38;2.10;;;;;;;;;;5071799;28;20123;-63
2021/12/31 07:21:01;;;;;;;6.78;1.98;;;;;;;;;;5072072;28;20125;-63
2021/12/31 07:23:27;;;;;;;6.10;2.60;;;;;;;;;;5071791;28;20079;-63
2021/12/31 07:25:53;;;;;;;4.30;2.10;;;;;;;;;;5072165;28;20033;-63
2021/12/31 07:28:19;;;;;;;4.43;2.20;;;;;;;;;;5071799;28;20064;-63
2021/12/31 07:30:45;;;;;;;8.13;2.35;;;;;;;;;;5072170;28;20036;-63
2021/12/31 07:33:15;;;;;;;5.72;2.13;;;;;;;;;;5072310;28;20040;-63
2021/12/31 07:35:41;;;;;;;6.57;2.15;;;;;;;;;;5071124;28;20045;-63
2021/12/31 07:38:11;;;;;;;5.72;2.58;;;;;;;;;;5072418;28;20123;-63
2021/12/31 07:40:39;;;;;;;8.27;2.33;;;;;;;;;;5071762;28;20106;-63
2021/12/31 07:43:10;;;;;;;4.30;1.98;;;;;;;;;;5071164;28;20045;-63
2021/12/31 07:45:37;;;;;;;4.45;2.08;;;;;;;;;;5071746;28;20463;-63
2021/12/31 07:48:03;;;;;;;5.38;2.47;;;;;;;;;;5071864;28;20128;-63
2021/12/31 07:50:30;;;;;;;4.25;2.00;;;;;;;;;;5070818;28;20033;-63
2021/12/31 07:52:56;;;;;;;8.73;2.38;;;;;;;;;;5071756;28;20087;-63
2021/12/31 07:55:22;;;;;;;10.10;2.13;;;;;;;;;;5071768;28;20041;-63
2021/12/31 07:57:48;;;;;;;6.00;2.13;;;;;;;;;;5071045;28;20040;-63
2021/12/31 08:00:14;;;;;;;5.65;2.15;;;;;;;;;;5071664;28;20048;-63
2021/12/31 08:02:40;;;;;;;5.57;2.60;;;;;;;;;;5071483;28;20036;-63
2021/12/31 08:05:07;;;;;;;6.68;2.60;;;;;;;;;;5089368;28;20087;-63
2021/12/31 08:07:33;;;;;;;3.67;2.05;;;;;;;;;;5067361;28;20032;-63
2021/12/31 08:09:59;;;;;;;4.38;2.22;;;;;;;;;;5070760;28;20386;-63
2021/12/31 08:12:25;;;;;;;5.70;2.35;;;;;;;;;;5071623;28;20044;-62
2021/12/31 08:14:51;;;;;;;7.03;2.30;;;;;;;;;;5069155;28;20033;-62
2021/12/31 08:17:17;;;;;;;7.53;1.92;;;;;;;;;;5072369;28;20033;-62
2021/12/31 08:19:43;;;;;;;5.88;2.40;;;;;;;;;;5071424;28;20040;-62
2021/12/31 08:22:09;;;;;;;7.40;2.75;;;;;;;;;;5071354;28;20633;-62
2021/12/31 08:24:35;;;;;;;5.35;2.22;;;;;;;;;;5071599;28;20056;-62
2021/12/31 08:27:01;;;;;;;5.55;2.40;;;;;;;;;;5071078;28;20391;-63
2021/12/31 08:29:27;;;;;;;6.43;1.98;;;;;;;;;;5071394;28;20045;-62
2021/12/31 08:31:54;;;;;;;3.65;1.98;;;;;;;;;;5071794;28;20044;-63
2021/12/31 08:34:20;;;;;;;5.30;2.28;;;;;;;;;;5070973;28;20041;-63
2021/12/31 08:36:46;;;;;;;5.40;2.10;;;;;;;;;;5072152;28;20533;-63
2021/12/31 08:39:12;;;;;;;3.88;2.40;;;;;;;;;;5071730;28;20037;-63
2021/12/31 08:41:39;;;;;;;4.60;2.05;;;;;;;;;;5071264;28;20483;-63
2021/12/31 08:44:06;;;;;;;5.05;2.08;;;;;;;;;;5071647;28;20041;-63
2021/12/31 08:46:32;;;;;;;4.70;2.10;;;;;;;;;;5071869;28;20612;-63
2021/12/31 08:48:58;;;;;;;4.40;2.35;;;;;;;;;;5070858;28;20091;-63
2021/12/31 08:51:25;;;;;;;4.72;2.30;;;;;;;;;;5071783;28;20044;-63
2021/12/31 08:53:51;;;;;;;6.07;2.10;;;;;;;;;;5071218;28;20656;-63
2021/12/31 08:56:17;;;;;;;5.05;2.20;;;;;;;;;;5071091;28;20040;-63
2021/12/31 08:58:43;;;;;;;4.65;2.13;;;;;;;;;;5071432;28;20547;-63
2021/12/31 09:01:09;;;;;;;3.90;2.30;;;;;;;;;;5071489;28;20047;-63
2021/12/31 09:03:36;;;;;;;5.07;2.55;;;;;;;;;;5070256;28;20116;-63
2021/12/31 09:06:02;;;;;;;3.97;2.30;;;;;;;;;;5067174;28;20043;-63
2021/12/31 09:08:28;;;;;;;4.75;2.20;;;;;;;;;;5096364;28;20579;-63
2021/12/31 09:10:54;;;;;;;6.95;2.60;;;;;;;;;;5070807;28;20044;-63
2021/12/31 09:13:20;;;;;;;6.72;2.60;;;;;;;;;;5070821;28;20044;-63
2021/12/31 09:15:47;;;;;;;5.30;2.58;;;;;;;;;;5071072;28;20104;-63
2021/12/31 09:18:13;;;;;;;7.72;3.00;;;;;;;;;;5070537;28;20041;-63
2021/12/31 09:20:40;;;;;;;5.68;2.67;;;;;;;;;;5070796;28;20032;-63
2021/12/31 09:23:06;;;;;;;4.65;3.25;;;;;;;;;;5070608;28;20127;-63
2021/12/31 09:25:32;;;;;;;7.25;2.90;;;;;;;;;;5069658;28;20044;-63
2021/12/31 09:27:58;;;;;;;5.07;2.47;;;;;;;;;;5059058;28;20475;-63
2021/12/31 09:30:25;;;;;;;4.95;2.88;;;;;;;;;;5069996;28;20040;-63
2021/12/31 09:32:51;;;;;;;8.25;3.47;;;;;;;;;;5070258;28;20961;-63
2021/12/31 09:35:17;;;;;;;5.50;2.83;;;;;;;;;;5070772;28;20658;-63
2021/12/31 09:37:43;;;;;;;5.25;2.55;;;;;;;;;;5070524;28;20158;-63
2021/12/31 09:40:09;;;;;;;6.22;2.40;;;;;;;;;;5071127;28;20044;-63
2021/12/31 09:42:36;;;;;;;9.50;2.47;;;;;;;;;;5070506;28;20123;-63
2021/12/31 09:45:02;;;;;;;5.22;2.42;;;;;;;;;;5070821;28;20124;-63
2021/12/31 09:47:28;;;;;;;4.82;2.22;;;;;;;;;;5070759;28;20036;-63
2021/12/31 09:49:54;;;;;;;4.75;2.47;;;;;;;;;;5070034;28;20123;-63
2021/12/31 09:52:21;;;;;;;5.30;2.08;;;;;;;;;;5070012;28;20049;-63
2021/12/31 09:54:47;;;;;;;9.13;2.75;;;;;;;;;;5070524;28;20166;-63
2021/12/31 09:57:14;;;;;;;6.53;2.58;;;;;;;;;;5070142;28;20298;-63
2021/12/31 09:59:41;;;;;;;5.55;2.55;;;;;;;;;;5070217;28;20119;-63
2021/12/31 10:02:09;;;;;;;5.85;2.58;;;;;;;;;;5062350;28;20067;-63
2021/12/31 10:04:55;;;;;;;7.38;2.53;;;;;;;;;;5070059;28;20769;-63
2021/12/31 10:07:23;;;;;;;5.45;2.75;;;;;;;;;;5069891;28;20098;-63
2021/12/31 10:10:04;;;;;;;6.38;2.45;;;;;;;;;;5070307;28;20052;-63
2021/12/31 10:12:49;;;;;;;3.65;2.13;;;;;;;;;;5069312;28;20124;-63
2021/12/31 10:15:17;;;;;;;6.03;2.28;;;;;;;;;;5070333;28;20395;-63
2021/12/31 10:17:43;;;;;;;5.28;2.33;;;;;;;;;;5070366;28;20120;-63
2021/12/31 10:20:09;;;;;;;6.00;2.35;;;;;;;;;;5070793;28;20079;-63
2021/12/31 10:22:35;;;;;;;4.75;2.67;;;;;;;;;;5070033;28;20033;-63
2021/12/31 10:25:02;;;;;;;4.45;2.42;;;;;;;;;;5068188;28;20505;-63
2021/12/31 10:27:28;;;;;;;6.22;2.78;;;;;;;;;;5070597;28;20505;-63
2021/12/31 10:29:57;;;;;;;6.32;2.40;;;;;;;;;;5070545;28;20037;-63
2021/12/31 10:32:24;;;;;;;5.82;3.15;;;;;;;;;;5069079;28;20048;-63
2021/12/31 10:34:50;;;;;;;6.25;2.65;;;;;;;;;;5070397;28;20170;-63
2021/12/31 10:37:17;;;;;;;3.60;2.42;;;;;;;;;;5070068;28;20115;-63
2021/12/31 10:39:44;;;;;;;7.57;3.15;;;;;;;;;;5072848;28;20046;-63
2021/12/31 10:42:12;;;;;;;7.68;2.83;;;;;;;;;;5072597;28;20036;-63
2021/12/31 10:44:41;;;;;;;7.00;2.40;;;;;;;;;;5073540;28;20090;-63
2021/12/31 10:47:11;;;;;;;4.68;2.40;;;;;;;;;;5070448;28;20170;-63
2021/12/31 10:49:55;;;;;;;5.47;2.50;;;;;;;;;;5067896;28;20044;-63
2021/12/31 10:52:26;;;;;;;4.88;3.22;;;;;;;;;;5073514;28;20116;-63
2021/12/31 10:55:23;;;;;;;7.55;2.40;;;;;;;;;;5072893;28;20045;-63
2021/12/31 10:57:51;;;;;;;8.07;2.65;;;;;;;;;;5073416;28;20488;-63
2021/12/31 11:00:18;;;;;;;8.80;3.08;;;;;;;;;;5072924;28;20048;-63
2021/12/31 11:02:44;;;;;;;6.22;2.88;;;;;;;;;;5065239;28;20040;-63
2021/12/31 11:05:11;;;;;;;7.50;2.95;;;;;;;;;;5073837;28;20059;-63
2021/12/31 11:07:38;;;;;;;6.38;2.80;;;;;;;;;;5073754;28;20044;-63
2021/12/31 11:10:05;;;;;;;8.02;3.25;;;;;;;;;;5073329;28;20129;-62
2021/12/31 11:12:31;;;;;;;5.68;3.33;;;;;;;;;;5073928;28;20032;-63
2021/12/31 11:14:58;;;;;;;5.78;3.00;;;;;;;;;;5073310;28;20043;-63
2021/12/31 11:17:25;;;;;;;10.95;3.45;;;;;;;;;;5073281;28;20036;-63
2021/12/31 11:19:51;;;;;;;6.13;3.42;;;;;;;;;;5073489;28;20044;-63
2021/12/31 11:22:18;;;;;;;6.63;3.53;;;;;;;;;;5072439;28;20040;-63
2021/12/31 11:24:44;;;;;;;6.97;3.13;;;;;;;;;;5071412;28;20148;-63
2021/12/31 11:27:31;;;;;;;10.77;4.68;;;;;;;;;;5072272;28;20055;-63
2021/12/31 11:29:57;;;;;;;12.32;5.70;;;;;;;;;;5071901;28;20049;-63
2021/12/31 11:32:42;;;;;;;11.10;5.63;;;;;;;;;;5071564;28;20040;-63
2021/12/31 11:35:26;;;;;;;9.02;4.95;;;;;;;;;;5072057;28;20123;-63
2021/12/31 11:37:52;;;;;;;11.02;5.40;;;;;;;;;;5072063;28;20433;-63
2021/12/31 11:40:38;;;;;;;10.88;4.88;;;;;;;;;;5071421;28;20048;-63
2021/12/31 11:43:19;;;;;;;9.48;4.57;;;;;;;;;;5071704;28;20074;-63
2021/12/31 11:46:05;;;;;;;10.85;5.35;;;;;;;;;;5071895;28;20048;-63
2021/12/31 11:48:47;;;;;;;15.05;6.32;;;;;;;;;;5071472;28;20041;-63
2021/12/31 11:51:16;;;;;;;17.75;7.47;;;;;;;;;;5071902;28;20040;-63
2021/12/31 11:53:57;;;;;;;10.88;4.40;;;;;;;;;;5071005;28;20048;-63
2021/12/31 11:56:45;;;;;;;11.18;5.22;;;;;;;;;;5071936;28;20033;-63
2021/12/31 11:59:14;;;;;;;7.85;4.38;;;;;;;;;;5071273;28;20053;-63
2021/12/31 12:01:40;;;;;;;9.38;4.68;;;;;;;;;;5070945;28;20036;-63
2021/12/31 12:04:19;;;;;;;11.73;4.35;;;;;;;;;;5071072;28;20411;-63
2021/12/31 12:06:55;;;;;;;12.75;4.93;;;;;;;;;;5071399;28;20402;-63
2021/12/31 12:09:21;;;;;;;10.40;4.22;;;;;;;;;;5070808;28;20063;-63
2021/12/31 12:12:03;;;;;;;8.50;4.00;;;;;;;;;;5071456;28;20039;-63
2021/12/31 12:14:31;;;;;;;12.25;5.43;;;;;;;;;;5070992;28;20032;-63
2021/12/31 12:16:57;;;;;;;10.57;4.68;;;;;;;;;;5070809;28;20045;-62
2021/12/31 12:19:23;;;;;;;10.25;4.82;;;;;;;;;;5071317;28;20076;-62
2021/12/31 12:21:53;;;;;;;13.48;5.38;;;;;;;;;;5071067;28;20114;-62
2021/12/31 12:24:25;;;;;;;9.85;4.72;;;;;;;;;;5070044;28;20062;-62
2021/12/31 12:26:52;;;;;;;12.68;5.55;;;;;;;;;;5071248;28;20055;-62
2021/12/31 12:29:25;;;;;;;10.88;5.63;;;;;;;;;;5070966;28;20050;-62
2021/12/31 12:32:10;;;;;;;12.95;6.38;;;;;;;;;;5070523;28;20475;-62
2021/12/31 12:34:36;;;;;;;13.68;6.35;;;;;;;;;;5070865;28;20580;-62
2021/12/31 12:37:03;;;;;;;13.90;7.30;;;;;;;;;;5071003;28;20040;-62
2021/12/31 12:39:30;;;;;;;12.50;6.72;;;;;;;;;;5070496;28;20402;-62
2021/12/31 12:41:56;;;;;;;15.43;7.43;;;;;;;;;;5070867;28;20044;-62
2021/12/31 12:44:22;;;;;;;15.60;8.27;;;;;;;;;;5070755;28;20124;-62
2021/12/31 12:46:57;;;;;;;20.25;8.48;;;;;;;;;;5070192;28;20036;-62
2021/12/31 12:49:24;;;;;;;16.10;8.40;;;;;;;;;;5070781;28;20094;-62
2021/12/31 12:51:51;;;;;;;24.45;13.05;;;;;;;;;;5070959;28;20118;-62
2021/12/31 12:54:24;;;;;;;19.27;10.05;;;;;;;;;;5070113;28;20051;-62
2021/12/31 12:56:51;;;;;;;11.27;7.15;;;;;;;;;;5070413;28;20045;-62
2021/12/31 12:59:21;;;;;;;16.42;8.13;;;;;;;;;;5070473;28;20055;-62
2021/12/31 13:01:47;;;;;;;14.70;7.40;;;;;;;;;;5069411;28;20044;-62
2021/12/31 13:04:14;;;;;;;15.80;8.00;;;;;;;;;;5070379;28;20089;-62
2021/12/31 13:06:44;;;;;;;10.73;6.20;;;;;;;;;;5070612;28;20040;-62
2021/12/31 13:09:10;;;;;;;12.38;6.60;;;;;;;;;;5069552;28;20040;-62
2021/12/31 13:11:38;;;;;;;10.90;6.57;;;;;;;;;;5070223;28;20410;-62
2021/12/31 13:14:11;;;;;;;10.95;5.88;;;;;;;;;;5070443;28;20045;-62
2021/12/31 13:16:37;;;;;;;7.07;5.72;;;;;;;;;;5069496;28;20052;-63
2021/12/31 13:19:07;;;;;;;12.82;5.20;;;;;;;;;;5070540;28;20044;-62
2021/12/31 13:21:34;;;;;;;12.68;5.93;;;;;;;;;;5070458;28;20123;-62
2021/12/31 13:24:00;;;;;;;7.97;4.40;;;;;;;;;;5069360;28;20072;-62
2021/12/31 13:26:31;;;;;;;8.95;5.05;;;;;;;;;;5070211;28;20040;-62
2021/12/31 13:28:58;;;;;;;13.63;5.35;;;;;;;;;;5070280;28;20083;-63
2021/12/31 13:31:34;;;;;;;10.48;5.45;;;;;;;;;;5069585;28;20044;-63
2021/12/31 13:34:13;;;;;;;11.85;4.85;;;;;;;;;;5070148;28;20114;-63
2021/12/31 13:36:46;;;;;;;10.95;5.15;;;;;;;;;;5102810;28;20040;-62
2021/12/31 13:39:14;;;;;;;11.45;5.10;;;;;;;;;;5069586;28;20448;-62
2021/12/31 13:41:43;;;;;;;15.52;5.30;;;;;;;;;;5070240;28;20169;-62
2021/12/31 13:44:12;;;;;;;12.90;4.70;;;;;;;;;;5069716;28;20041;-62
2021/12/31 13:46:40;;;;;;;15.13;5.13;;;;;;;;;;5069032;28;20125;-63
2021/12/31 13:49:10;;;;;;;13.60;4.10;;;;;;;;;;5069931;28;20044;-62
2021/12/31 13:51:40;;;;;;;16.60;4.97;;;;;;;;;;5070062;28;20611;-62
2021/12/31 13:54:07;;;;;;;17.08;5.18;;;;;;;;;;5069312;28;20041;-62
2021/12/31 13:56:34;;;;;;;15.60;5.13;;;;;;;;;;5070180;28;20040;-62
2021/12/31 13:59:14;;;;;;;18.42;5.22;;;;;;;;;;5069841;28;20068;-62
2021/12/31 14:01:42;;;;;;;15.77;5.10;;;;;;;;;;5069728;28;20129;-63
2021/12/31 14:04:11;;;;;;;20.00;5.25;;;;;;;;;;5069752;28;20401;-62
2021/12/31 14:06:39;;;;;;;15.43;4.50;;;;;;;;;;5069590;28;20033;-62
2021/12/31 14:09:05;;;;;;;12.57;5.07;;;;;;;;;;5070038;28;20076;-62
2021/12/31 14:11:31;;;;;;;21.88;5.47;;;;;;;;;;5069757;28;20492;-62
2021/12/31 14:13:57;;;;;;;16.08;5.18;;;;;;;;;;5071428;28;20043;-62
2021/12/31 14:16:23;;;;;;;16.10;5.25;;;;;;;;;;5073698;28;20044;-62
2021/12/31 14:18:49;;;;;;;15.38;5.07;;;;;;;;;;5073734;28;20047;-62
2021/12/31 14:21:15;;;;;;;13.10;5.43;;;;;;;;;;5073366;28;20548;-62
2021/12/31 14:23:41;;;;;;;15.63;4.85;;;;;;;;;;5072646;28;20071;-62
2021/12/31 14:26:07;;;;;;;16.08;5.63;;;;;;;;;;5065739;28;20033;-62
2021/12/31 14:28:36;;;;;;;16.52;5.90;;;;;;;;;;5053360;28;20037;-62
2021/12/31 14:31:03;;;;;;;16.05;5.18;;;;;;;;;;5052658;28;20041;-62
2021/12/31 14:33:29;;;;;;;18.70;5.55;;;;;;;;;;5053220;28;20410;-62
2021/12/31 14:35:56;;;;;;;19.75;5.88;;;;;;;;;;5053292;28;20120;-62
2021/12/31 14:38:23;;;;;;;20.30;6.13;;;;;;;;;;5052744;28;20037;-62
2021/12/31 14:40:50;;;;;;;18.85;5.75;;;;;;;;;;5053319;28;20119;-62
2021/12/31 14:43:16;;;;;;;14.57;5.97;;;;;;;;;;5053339;28;20051;-62
2021/12/31 14:45:42;;;;;;;16.65;6.28;;;;;;;;;;5052391;28;20045;-62
2021/12/31 14:48:08;;;;;;;19.85;6.32;;;;;;;;;;5053053;28;20050;-62